createdAt,value
2019-03-23T00:01:19.469Z,36.00
2019-03-23T00:03:51.248Z,39.60
2019-03-23T00:06:30.413Z,46.10
2019-03-23T00:08:55.998Z,48.77
2019-03-23T00:11:31.036Z,41.77
2019-03-23T00:14:02.486Z,40.67
2019-03-23T00:16:34.141Z,37.73
2019-03-23T00:19:05.575Z,34.93
2019-03-23T00:21:37.380Z,35.03
2019-03-23T00:24:09.218Z,33.50
2019-03-23T00:26:41.073Z,34.77
2019-03-23T00:29:12.716Z,35.37
2019-03-23T00:31:44.390Z,36.03
2019-03-23T00:34:16.131Z,38.53
2019-03-23T00:36:47.590Z,34.83
2019-03-23T00:39:19.155Z,38.17
2019-03-23T00:41:51.005Z,30.63
2019-03-23T00:44:22.674Z,28.90
2019-03-23T00:46:54.635Z,27.83
2019-03-23T00:49:26.273Z,24.30
2019-03-23T00:51:57.726Z,24.10
2019-03-23T00:54:29.427Z,24.53
2019-03-23T00:57:01.266Z,24.17
2019-03-23T00:59:32.926Z,22.57
2019-03-23T01:02:04.577Z,18.10
2019-03-23T01:04:36.136Z,21.20
2019-03-23T01:07:07.893Z,20.87
2019-03-23T01:09:39.553Z,21.43
2019-03-23T01:12:11.309Z,19.60
2019-03-23T01:14:42.948Z,21.33
2019-03-23T01:17:14.400Z,21.33
2019-03-23T01:19:46.162Z,22.60
2019-03-23T01:22:17.821Z,22.77
2019-03-23T01:24:49.801Z,22.13
2019-03-23T01:27:21.565Z,19.30
2019-03-23T01:29:53.216Z,19.83
2019-03-23T01:32:25.081Z,12.13
2019-03-23T01:34:56.643Z,11.60
2019-03-23T01:37:28.403Z,9.90
2019-03-23T01:40:00.050Z,10.07
2019-03-23T01:42:31.588Z,6.80
2019-03-23T01:45:03.270Z,6.33
2019-03-23T01:47:34.649Z,6.37
2019-03-23T01:50:07.396Z,3.80
2019-03-23T01:52:39.854Z,2.30
2019-03-23T01:55:11.219Z,2.23
2019-03-23T01:57:42.877Z,2.10
2019-03-23T02:00:14.432Z,2.27
2019-03-23T02:02:47.587Z,2.50
2019-03-23T02:05:18.985Z,2.33
2019-03-23T02:07:50.627Z,1.90
2019-03-23T02:10:22.169Z,2.03
2019-03-23T02:12:53.741Z,1.80
2019-03-23T02:15:25.483Z,1.90
2019-03-23T02:17:57.154Z,1.90
2019-03-23T02:20:28.614Z,2.00
2019-03-23T02:23:00.267Z,1.97
2019-03-23T02:25:32.029Z,1.83
2019-03-23T02:28:03.487Z,1.93
2019-03-23T02:30:35.015Z,2.37
2019-03-23T02:33:06.592Z,2.20
2019-03-23T02:35:38.028Z,2.37
2019-03-23T02:38:09.704Z,2.53
2019-03-23T02:40:41.259Z,2.50
2019-03-23T02:43:14.452Z,2.40
2019-03-23T02:45:46.114Z,2.57
2019-03-23T02:48:17.669Z,2.40
2019-03-23T02:50:49.219Z,2.47
2019-03-23T02:53:20.684Z,2.47
2019-03-23T02:55:52.150Z,2.40
2019-03-23T02:58:23.762Z,2.47
2019-03-23T03:00:55.334Z,2.70
2019-03-23T03:03:26.775Z,2.50
2019-03-23T03:05:58.329Z,2.57
2019-03-23T03:08:30.002Z,2.50
2019-03-23T03:11:01.436Z,2.70
2019-03-23T03:13:32.901Z,2.20
2019-03-23T03:16:04.348Z,2.20
2019-03-23T03:18:36.017Z,2.07
2019-03-23T03:21:07.454Z,2.53
2019-03-23T03:23:39.087Z,2.40
2019-03-23T03:26:10.478Z,2.30
2019-03-23T03:28:42.050Z,2.43
2019-03-23T03:31:13.470Z,2.33
2019-03-23T03:33:44.935Z,2.30
2019-03-23T03:36:16.286Z,2.17
2019-03-23T03:38:47.927Z,2.33
2019-03-23T03:41:19.604Z,2.10
2019-03-23T03:43:51.031Z,2.80
2019-03-23T03:46:22.607Z,2.00
2019-03-23T03:48:53.954Z,2.03
2019-03-23T03:51:25.639Z,2.10
2019-03-23T03:53:57.168Z,2.50
2019-03-23T03:56:28.707Z,2.03
2019-03-23T03:59:00.384Z,2.33
2019-03-23T04:01:31.812Z,2.23
2019-03-23T04:04:03.297Z,2.13
2019-03-23T04:06:34.855Z,2.43
2019-03-23T04:09:07.010Z,2.10
2019-03-23T04:11:38.342Z,2.20
2019-03-23T04:14:10.021Z,2.17
2019-03-23T04:16:41.374Z,2.30
2019-03-23T04:19:13.135Z,2.13
2019-03-23T04:21:44.574Z,2.50
2019-03-23T04:24:16.139Z,2.67
2019-03-23T04:26:47.675Z,2.63
2019-03-23T04:29:19.376Z,2.17
2019-03-23T04:31:50.718Z,2.13
2019-03-23T04:34:22.257Z,1.97
2019-03-23T04:36:53.910Z,1.43
2019-03-23T04:39:25.608Z,2.00
2019-03-23T04:41:57.028Z,1.70
2019-03-23T04:44:28.577Z,1.53
2019-03-23T04:46:59.932Z,1.70
2019-03-23T04:49:31.469Z,1.67
2019-03-23T04:52:02.945Z,1.50
2019-03-23T04:54:34.488Z,2.10
2019-03-23T04:57:06.145Z,1.97
2019-03-23T04:59:38.625Z,2.90
2019-03-23T05:02:10.068Z,3.30
2019-03-23T05:04:41.531Z,3.20
2019-03-23T05:07:13.401Z,3.53
2019-03-23T05:09:44.956Z,5.00
2019-03-23T05:12:16.812Z,4.70
2019-03-23T05:14:48.481Z,4.10
2019-03-23T05:17:20.108Z,2.67
2019-03-23T05:19:51.783Z,3.47
2019-03-23T05:22:23.223Z,3.90
2019-03-23T05:24:55.100Z,3.77
2019-03-23T05:27:26.755Z,3.03
2019-03-23T05:29:58.505Z,2.83
2019-03-23T05:32:29.968Z,3.17
2019-03-23T05:35:01.523Z,2.97
2019-03-23T05:37:33.060Z,2.72
2019-03-23T05:40:06.505Z,1.90
2019-03-23T05:42:37.806Z,1.95
2019-03-23T05:45:09.369Z,2.30
2019-03-23T05:47:41.023Z,2.20
2019-03-23T05:50:12.679Z,1.50
2019-03-23T05:52:43.945Z,1.37
2019-03-23T05:55:15.603Z,2.08
2019-03-23T05:57:47.156Z,2.40
2019-03-23T06:00:20.080Z,2.00
2019-03-23T06:02:51.396Z,1.83
2019-03-23T06:05:24.671Z,1.90
2019-03-23T06:07:56.122Z,1.37
2019-03-23T06:10:27.480Z,2.17
2019-03-23T06:12:59.031Z,2.10
2019-03-23T06:15:30.392Z,2.40
2019-03-23T06:18:02.034Z,1.60
2019-03-23T06:20:50.404Z,1.90
2019-03-23T06:23:21.952Z,2.33
2019-03-23T06:25:53.625Z,2.10
2019-03-23T06:28:25.261Z,2.10
2019-03-23T06:30:56.597Z,2.53
2019-03-23T06:33:28.273Z,2.20
2019-03-23T06:35:59.624Z,2.35
2019-03-23T06:38:31.263Z,1.92
2019-03-23T06:41:02.935Z,2.50
2019-03-23T06:43:34.495Z,2.08
2019-03-23T06:46:05.944Z,1.92
2019-03-23T06:48:37.503Z,2.45
2019-03-23T06:51:09.038Z,2.20
2019-03-23T06:53:40.593Z,1.67
2019-03-23T06:56:11.963Z,1.87
2019-03-23T06:58:43.408Z,1.70
2019-03-23T07:01:15.766Z,1.70
2019-03-23T07:03:47.686Z,2.08
2019-03-23T07:06:18.928Z,1.80
2019-03-23T07:08:50.297Z,1.77
2019-03-23T07:11:21.898Z,2.77
2019-03-23T07:13:53.641Z,2.30
2019-03-23T07:16:25.236Z,2.25
2019-03-23T07:18:56.727Z,1.60
2019-03-23T07:21:28.305Z,1.90
2019-03-23T07:23:59.875Z,1.50
2019-03-23T07:26:31.532Z,2.25
2019-03-23T07:29:04.268Z,2.60
2019-03-23T07:31:35.556Z,1.57
2019-03-23T07:34:06.886Z,1.60
2019-03-23T07:36:38.437Z,2.50
2019-03-23T07:39:10.336Z,2.90
2019-03-23T07:41:42.170Z,2.62
2019-03-23T07:44:13.537Z,1.70
2019-03-23T07:46:45.074Z,1.27
2019-03-23T07:49:16.752Z,1.30
2019-03-23T07:51:48.195Z,1.20
2019-03-23T07:54:19.832Z,1.40
2019-03-23T07:56:51.404Z,1.40
2019-03-23T07:59:23.754Z,1.92
2019-03-23T08:01:57.439Z,1.70
2019-03-23T08:04:28.933Z,1.95
2019-03-23T08:07:00.591Z,2.12
2019-03-23T08:09:37.694Z,2.35
2019-03-23T08:12:05.523Z,1.97
2019-03-23T08:14:37.261Z,1.80
2019-03-23T08:17:09.055Z,2.47
2019-03-23T08:19:41.445Z,2.50
2019-03-23T08:22:12.657Z,2.30
2019-03-23T08:24:44.216Z,1.92
2019-03-23T08:27:15.900Z,2.58
2019-03-23T08:29:47.419Z,2.60
2019-03-23T08:32:19.076Z,3.17
2019-03-23T08:34:50.339Z,3.45
2019-03-23T08:37:21.999Z,1.87
2019-03-23T08:39:54.073Z,1.50
2019-03-23T08:42:25.629Z,1.70
2019-03-23T08:44:57.176Z,1.80
2019-03-23T08:47:28.935Z,1.90
2019-03-23T08:50:00.339Z,3.35
2019-03-23T08:52:31.718Z,3.30
2019-03-23T08:55:03.392Z,2.72
2019-03-23T08:57:34.833Z,3.47
2019-03-23T09:00:06.998Z,3.10
2019-03-23T09:02:39.369Z,3.25
2019-03-23T09:05:10.835Z,5.70
2019-03-23T09:07:43.734Z,5.00
2019-03-23T09:10:15.669Z,5.40
2019-03-23T09:15:26.985Z,6.20
2019-03-23T09:17:58.921Z,4.62
2019-03-23T09:20:30.903Z,5.62
2019-03-23T09:23:02.411Z,5.62
2019-03-23T09:25:34.013Z,5.12
2019-03-23T09:28:06.133Z,2.20
2019-03-23T09:30:37.732Z,2.45
2019-03-23T09:33:09.300Z,3.40
2019-03-23T09:35:41.683Z,3.70
2019-03-23T09:38:13.244Z,4.62
2019-03-23T09:40:44.896Z,5.17
2019-03-23T09:43:17.884Z,6.05
2019-03-23T09:45:49.521Z,5.80
2019-03-23T09:48:21.481Z,4.42
2019-03-23T09:50:53.155Z,3.70
2019-03-23T09:53:24.505Z,3.87
2019-03-23T09:55:56.145Z,2.60
2019-03-23T09:58:27.718Z,2.20
2019-03-23T10:00:59.168Z,2.55
2019-03-23T10:03:30.824Z,3.05
2019-03-23T10:06:02.787Z,3.87
2019-03-23T10:08:34.321Z,3.70
2019-03-23T10:11:05.986Z,4.60
2019-03-23T10:13:37.470Z,2.33
2019-03-23T10:16:09.112Z,2.60
2019-03-23T10:18:40.767Z,2.55
2019-03-23T10:21:12.219Z,3.40
2019-03-23T10:23:43.464Z,3.60
2019-03-23T10:26:15.149Z,3.60
2019-03-23T10:28:46.573Z,3.90
2019-03-23T10:31:18.128Z,4.10
2019-03-23T10:33:49.680Z,4.55
2019-03-23T10:36:21.136Z,4.17
2019-03-23T10:38:52.575Z,4.58
2019-03-23T10:41:24.754Z,3.20
2019-03-23T10:43:56.100Z,3.77
2019-03-23T10:46:28.065Z,3.60
2019-03-23T10:48:59.601Z,3.30
2019-03-23T10:51:32.405Z,4.70
2019-03-23T10:54:04.157Z,4.12
2019-03-23T10:56:35.693Z,4.15
2019-03-23T10:59:07.148Z,3.83
2019-03-23T11:01:38.802Z,4.67
2019-03-23T11:04:10.377Z,4.50
2019-03-23T11:06:42.203Z,4.80
2019-03-23T11:09:13.571Z,3.87
2019-03-23T11:11:45.038Z,3.33
2019-03-23T11:14:16.598Z,4.75
2019-03-23T11:16:48.246Z,3.72
2019-03-23T11:19:19.909Z,2.87
2019-03-23T11:21:51.565Z,3.45
2019-03-23T11:24:22.918Z,3.25
2019-03-23T11:26:54.456Z,4.60
2019-03-23T11:29:26.065Z,4.70
2019-03-23T11:31:57.685Z,5.40
2019-03-23T11:34:29.544Z,3.90
2019-03-23T11:37:01.089Z,4.53
2019-03-23T11:39:33.477Z,4.05
2019-03-23T11:42:05.117Z,4.03
2019-03-23T11:44:36.568Z,5.00
2019-03-23T11:47:08.550Z,4.78
2019-03-23T11:49:40.292Z,5.53
2019-03-23T11:52:11.863Z,5.35
2019-03-23T11:54:44.539Z,5.60
2019-03-23T11:57:16.119Z,3.80
2019-03-23T11:59:47.746Z,4.80
2019-03-23T12:02:19.424Z,5.05
2019-03-23T12:04:52.814Z,5.27
2019-03-23T12:07:24.433Z,3.50
2019-03-23T12:09:56.113Z,4.17
2019-03-23T12:12:27.888Z,5.08
2019-03-23T12:15:02.817Z,5.30
2019-03-23T12:17:34.672Z,2.95
2019-03-23T12:20:09.514Z,3.85
2019-03-23T12:22:40.975Z,4.33
2019-03-23T12:25:12.722Z,4.30
2019-03-23T12:27:44.379Z,3.70
2019-03-23T12:30:16.965Z,3.30
2019-03-23T12:32:48.406Z,4.30
2019-03-23T12:35:20.075Z,5.03
2019-03-23T12:37:51.612Z,3.75
2019-03-23T12:40:23.288Z,3.67
2019-03-23T12:42:54.841Z,4.25
2019-03-23T12:45:26.377Z,4.10
2019-03-23T12:47:57.851Z,4.25
2019-03-23T12:50:30.103Z,5.75
2019-03-23T12:53:01.757Z,5.08
2019-03-23T12:55:34.646Z,5.00
2019-03-23T12:58:06.534Z,4.78
2019-03-23T13:00:38.092Z,5.28
2019-03-23T13:03:09.531Z,3.50
2019-03-23T13:05:41.274Z,3.02
2019-03-23T13:08:12.932Z,3.55
2019-03-23T13:10:44.615Z,3.80
2019-03-23T13:13:16.032Z,3.83
2019-03-23T13:15:47.313Z,3.92
2019-03-23T13:18:26.904Z,4.60
2019-03-23T13:20:52.052Z,4.12
2019-03-23T13:23:23.708Z,4.00
2019-03-23T13:25:55.363Z,3.27
2019-03-23T13:28:26.911Z,4.33
2019-03-23T13:30:58.676Z,3.37
2019-03-23T13:33:30.248Z,3.58
2019-03-23T13:36:01.701Z,4.00
2019-03-23T13:38:33.057Z,4.28
2019-03-23T13:41:04.639Z,5.33
2019-03-23T13:43:36.160Z,5.00
2019-03-23T13:46:07.828Z,5.10
2019-03-23T13:48:39.476Z,3.77
2019-03-23T13:51:11.241Z,4.00
2019-03-23T13:53:42.694Z,3.72
2019-03-23T13:56:14.225Z,4.22
2019-03-23T13:58:46.100Z,3.20
2019-03-23T14:01:17.762Z,4.20
2019-03-23T14:03:50.447Z,4.15
2019-03-23T14:06:23.123Z,3.87
2019-03-23T14:08:54.684Z,3.83
2019-03-23T14:11:26.341Z,4.08
2019-03-23T14:13:57.797Z,4.10
2019-03-23T14:16:29.480Z,4.10
2019-03-23T14:19:00.903Z,3.52
2019-03-23T14:21:32.568Z,3.58
2019-03-23T14:24:04.119Z,3.60
2019-03-23T14:26:38.325Z,3.22
2019-03-23T14:31:40.624Z,4.22
2019-03-23T14:34:12.177Z,5.30
2019-03-23T14:36:43.934Z,4.70
2019-03-23T14:39:15.486Z,5.53
2019-03-23T14:41:47.247Z,5.00
2019-03-23T14:44:19.013Z,5.35
2019-03-23T14:46:50.571Z,4.40
2019-03-23T14:49:23.351Z,4.92
2019-03-23T14:51:55.704Z,4.83
2019-03-23T14:54:27.189Z,4.87
2019-03-23T14:56:58.748Z,4.70
2019-03-23T14:59:30.383Z,4.85
2019-03-23T15:02:02.758Z,4.70
2019-03-23T15:04:35.637Z,4.60
2019-03-23T15:07:06.932Z,5.08
2019-03-23T15:09:38.661Z,5.20
2019-03-23T15:12:14.975Z,5.08
2019-03-23T15:14:43.200Z,5.92
2019-03-23T15:17:15.058Z,6.08
2019-03-23T15:19:46.922Z,6.85
2019-03-23T15:22:18.461Z,6.12
2019-03-23T15:24:49.928Z,5.95
2019-03-23T15:27:21.569Z,4.83
2019-03-23T15:29:53.127Z,4.97
2019-03-23T15:32:24.696Z,5.08
2019-03-23T15:34:56.563Z,4.33
2019-03-23T15:37:27.992Z,4.58
2019-03-23T15:39:59.770Z,5.42
2019-03-23T15:42:31.541Z,7.50
2019-03-23T15:45:03.250Z,4.92
2019-03-23T15:47:34.744Z,4.92
2019-03-23T15:50:09.271Z,4.97
2019-03-23T15:55:11.253Z,6.78
2019-03-23T15:57:43.204Z,9.15
2019-03-23T16:00:15.273Z,7.58
2019-03-23T16:02:46.792Z,9.78
2019-03-23T16:05:18.683Z,9.25
2019-03-23T16:07:50.137Z,8.65
2019-03-23T16:10:21.908Z,7.58
2019-03-23T16:12:53.364Z,7.05
2019-03-23T16:15:25.022Z,13.80
2019-03-23T16:17:56.679Z,11.18
2019-03-23T16:20:28.431Z,10.68
2019-03-23T16:23:00.102Z,7.25
2019-03-23T16:25:31.957Z,9.93
2019-03-23T16:28:03.616Z,9.83
2019-03-23T16:30:36.473Z,11.28
2019-03-23T16:33:08.265Z,8.78
2019-03-23T16:35:39.914Z,5.67
2019-03-23T16:38:11.475Z,5.87
2019-03-23T16:40:43.020Z,5.50
2019-03-23T16:43:14.582Z,5.03
2019-03-23T16:45:46.453Z,4.42
2019-03-23T16:48:18.104Z,5.28
2019-03-23T16:50:49.643Z,5.92
2019-03-23T16:53:21.622Z,7.90
2019-03-23T16:55:53.285Z,10.55
2019-03-23T16:58:24.941Z,11.40
2019-03-23T17:01:18.201Z,9.35
2019-03-23T17:03:50.060Z,9.15
2019-03-23T17:06:21.925Z,8.28
2019-03-23T17:08:53.563Z,8.75
2019-03-23T17:11:25.428Z,8.08
2019-03-23T17:13:57.175Z,8.05
2019-03-23T17:16:28.944Z,6.20
2019-03-23T17:19:00.719Z,7.70
2019-03-23T17:21:32.785Z,6.20
2019-03-23T17:24:04.443Z,8.70
2019-03-23T17:26:36.607Z,6.83
2019-03-23T17:29:08.456Z,6.95
2019-03-23T17:31:39.924Z,6.33
2019-03-23T17:34:11.677Z,8.38
2019-03-23T17:36:43.438Z,7.85
2019-03-23T17:39:15.208Z,10.35
2019-03-23T17:41:46.958Z,9.90
2019-03-23T17:44:18.741Z,8.35
2019-03-23T17:46:50.585Z,8.83
2019-03-23T17:49:22.339Z,7.60
2019-03-23T17:51:55.578Z,8.58
2019-03-23T17:54:27.397Z,9.58
2019-03-23T17:56:59.822Z,6.60
2019-03-23T17:59:31.726Z,8.05
2019-03-23T18:02:03.186Z,5.67
2019-03-23T18:04:35.114Z,6.15
2019-03-23T18:07:06.691Z,6.00
2019-03-23T18:09:38.261Z,5.97
2019-03-23T18:12:10.025Z,6.40
2019-03-23T18:14:42.091Z,5.67
2019-03-23T18:17:14.469Z,5.47
2019-03-23T18:19:46.046Z,7.72
2019-03-23T18:22:17.787Z,6.20
2019-03-23T18:24:49.650Z,6.62
2019-03-23T18:27:21.419Z,5.35
2019-03-23T18:29:53.218Z,5.60
2019-03-23T18:32:24.822Z,6.28
2019-03-23T18:34:56.662Z,5.28
2019-03-23T18:37:28.564Z,5.53
2019-03-23T18:39:59.884Z,6.10
2019-03-23T18:42:32.454Z,6.47
2019-03-23T18:45:04.379Z,6.92
2019-03-23T18:47:35.993Z,7.25
2019-03-23T18:50:07.655Z,7.35
2019-03-23T18:52:39.162Z,6.40
2019-03-23T18:55:11.375Z,7.03
2019-03-23T18:57:43.137Z,5.65
2019-03-23T19:00:32.814Z,5.90
2019-03-23T19:03:04.356Z,5.97
2019-03-23T19:05:37.256Z,5.60
2019-03-23T19:08:08.910Z,6.50
2019-03-23T19:10:40.571Z,7.35
2019-03-23T19:13:13.761Z,7.10
2019-03-23T19:15:45.195Z,7.42
2019-03-23T19:18:17.879Z,7.65
2019-03-23T19:20:49.229Z,7.37
2019-03-23T19:23:20.702Z,8.50
2019-03-23T19:25:52.395Z,8.23
2019-03-23T19:28:24.042Z,8.63
2019-03-23T19:30:56.170Z,10.23
2019-03-23T19:33:29.647Z,11.00
2019-03-23T19:36:02.255Z,11.03
2019-03-23T19:38:34.545Z,10.20
2019-03-23T19:41:05.995Z,9.63
2019-03-23T19:43:48.010Z,8.65
2019-03-23T19:46:21.490Z,8.80
2019-03-23T19:48:53.145Z,8.33
2019-03-23T19:51:24.903Z,8.70
2019-03-23T19:53:56.251Z,8.05
2019-03-23T19:56:30.299Z,8.43
2019-03-23T19:59:02.005Z,9.75
2019-03-23T20:01:33.581Z,10.13
2019-03-23T20:04:06.157Z,9.95
2019-03-23T20:06:40.755Z,8.90
2019-03-23T20:09:14.441Z,8.80
2019-03-23T20:11:46.551Z,8.30
2019-03-23T20:14:18.778Z,7.67
2019-03-23T20:16:50.785Z,7.40
2019-03-23T20:19:22.223Z,7.85
2019-03-23T20:21:54.709Z,7.90
2019-03-23T20:24:28.120Z,9.10
2019-03-23T20:27:00.186Z,8.37
2019-03-23T20:29:32.023Z,7.97
2019-03-23T20:32:03.909Z,8.55
2019-03-23T20:34:35.658Z,9.35
2019-03-23T20:37:08.418Z,9.48
2019-03-23T20:39:40.304Z,10.32
2019-03-23T20:42:12.455Z,9.98
2019-03-23T20:44:44.336Z,9.65
2019-03-23T20:47:16.122Z,9.73
2019-03-23T20:49:47.549Z,8.53
2019-03-23T20:52:19.304Z,9.90
2019-03-23T20:54:51.047Z,10.15
2019-03-23T20:57:24.212Z,10.90
2019-03-23T20:59:55.823Z,11.10
2019-03-23T21:02:27.673Z,10.85
2019-03-23T21:04:59.028Z,10.82
2019-03-23T21:07:30.991Z,9.10
2019-03-23T21:10:02.542Z,10.10
2019-03-23T21:12:35.635Z,10.40
2019-03-23T21:15:07.180Z,11.53
2019-03-23T21:17:50.777Z,10.38
2019-03-23T21:20:11.703Z,9.48
2019-03-23T21:22:43.174Z,9.70
2019-03-23T21:25:16.670Z,10.90
2019-03-23T21:27:48.235Z,10.78
2019-03-23T21:30:19.862Z,11.33
2019-03-23T21:32:52.942Z,10.78
2019-03-23T21:35:24.525Z,10.43
2019-03-23T21:37:56.164Z,10.63
2019-03-23T21:40:27.918Z,11.12
2019-03-23T21:43:03.361Z,11.30
2019-03-23T21:45:35.250Z,11.03
2019-03-23T21:48:08.464Z,11.30
2019-03-23T21:50:47.457Z,10.60
2019-03-23T21:53:13.726Z,10.48
2019-03-23T21:55:45.460Z,10.95
2019-03-23T21:58:17.034Z,9.93
2019-03-23T22:00:50.843Z,10.65
2019-03-23T22:03:22.512Z,10.35
2019-03-23T22:05:54.252Z,9.43
2019-03-23T22:08:25.985Z,10.38
2019-03-23T22:10:57.666Z,10.18
2019-03-23T22:13:29.524Z,10.97
2019-03-23T22:16:01.163Z,9.75
2019-03-23T22:18:36.120Z,9.10
2019-03-23T22:21:07.575Z,9.58
2019-03-23T22:23:39.266Z,9.55
2019-03-23T22:26:11.078Z,9.78
2019-03-23T22:28:42.631Z,10.90
2019-03-23T22:31:14.409Z,9.73
2019-03-23T22:33:45.835Z,10.73
2019-03-23T22:36:17.395Z,10.90
2019-03-23T22:38:49.344Z,10.47
2019-03-23T22:41:21.013Z,10.27
2019-03-23T22:43:52.692Z,10.90
2019-03-23T22:46:24.532Z,11.30
2019-03-23T22:48:56.185Z,10.53
2019-03-23T22:51:27.513Z,10.50
2019-03-23T22:53:59.399Z,10.33
2019-03-23T22:56:30.974Z,10.60
2019-03-23T22:59:02.735Z,9.27
2019-03-23T23:01:34.721Z,10.93
2019-03-23T23:04:06.454Z,10.47
2019-03-23T23:06:38.121Z,11.20
2019-03-23T23:09:10.320Z,11.07
2019-03-23T23:11:41.730Z,11.17
2019-03-23T23:14:14.718Z,11.33
2019-03-23T23:16:46.567Z,11.37
2019-03-23T23:19:18.039Z,12.23
2019-03-23T23:21:49.794Z,12.37
2019-03-23T23:24:21.353Z,13.90
2019-03-23T23:26:52.929Z,15.37
2019-03-23T23:29:25.675Z,15.17
2019-03-23T23:31:57.434Z,16.33
2019-03-23T23:34:29.091Z,16.53
2019-03-23T23:37:05.279Z,17.87
2019-03-23T23:39:36.826Z,17.60
2019-03-23T23:42:08.383Z,16.43
2019-03-23T23:44:40.123Z,16.57
2019-03-23T23:47:11.897Z,16.60
2019-03-23T23:49:44.787Z,16.60
2019-03-23T23:52:16.551Z,16.67
2019-03-23T23:54:48.217Z,15.73
2019-03-23T23:57:19.745Z,15.67
2019-03-23T23:59:51.628Z,14.87
